sensor_id;sensor_type;location;lat;lon;timestamp;temperature;humidity
44537;DHT22;30245;51.966;6.292;2023-02-28T00:00:27;8.40;41.80
44537;DHT22;30245;51.966;6.292;2023-02-28T00:02:53;8.40;41.80
44537;DHT22;30245;51.966;6.292;2023-02-28T00:05:21;8.40;41.90
44537;DHT22;30245;51.966;6.292;2023-02-28T00:07:48;8.40;41.90
44537;DHT22;30245;51.966;6.292;2023-02-28T00:10:17;8.40;42.00
44537;DHT22;30245;51.966;6.292;2023-02-28T00:12:47;8.40;42.00
44537;DHT22;30245;51.966;6.292;2023-02-28T00:15:13;8.50;42.10
44537;DHT22;30245;51.966;6.292;2023-02-28T00:17:39;8.50;42.10
44537;DHT22;30245;51.966;6.292;2023-02-28T00:20:06;8.50;42.10
44537;DHT22;30245;51.966;6.292;2023-02-28T00:22:34;8.50;42.20
44537;DHT22;30245;51.966;6.292;2023-02-28T00:24:59;8.50;42.20
44537;DHT22;30245;51.966;6.292;2023-02-28T00:27:25;8.60;42.30
44537;DHT22;30245;51.966;6.292;2023-02-28T00:29:51;8.60;42.40
44537;DHT22;30245;51.966;6.292;2023-02-28T00:32:16;8.50;42.30
44537;DHT22;30245;51.966;6.292;2023-02-28T00:34:43;8.50;42.40
44537;DHT22;30245;51.966;6.292;2023-02-28T00:37:09;8.60;42.40
44537;DHT22;30245;51.966;6.292;2023-02-28T00:39:38;8.60;42.50
44537;DHT22;30245;51.966;6.292;2023-02-28T00:42:04;8.60;42.50
44537;DHT22;30245;51.966;6.292;2023-02-28T00:44:30;8.60;42.60
44537;DHT22;30245;51.966;6.292;2023-02-28T00:46:56;8.60;42.70
44537;DHT22;30245;51.966;6.292;2023-02-28T00:49:22;8.50;42.70
44537;DHT22;30245;51.966;6.292;2023-02-28T00:51:48;8.50;42.90
44537;DHT22;30245;51.966;6.292;2023-02-28T00:54:14;8.60;42.90
44537;DHT22;30245;51.966;6.292;2023-02-28T00:56:39;8.50;43.00
44537;DHT22;30245;51.966;6.292;2023-02-28T00:59:05;8.60;43.10
44537;DHT22;30245;51.966;6.292;2023-02-28T01:01:31;8.60;43.10
44537;DHT22;30245;51.966;6.292;2023-02-28T01:03:56;8.60;43.70
44537;DHT22;30245;51.966;6.292;2023-02-28T01:06:22;8.60;43.20
44537;DHT22;30245;51.966;6.292;2023-02-28T01:08:48;8.50;43.20
44537;DHT22;30245;51.966;6.292;2023-02-28T01:11:16;8.50;43.30
44537;DHT22;30245;51.966;6.292;2023-02-28T01:13:43;8.50;43.40
44537;DHT22;30245;51.966;6.292;2023-02-28T01:16:09;8.50;43.50
44537;DHT22;30245;51.966;6.292;2023-02-28T01:18:36;8.50;43.50
44537;DHT22;30245;51.966;6.292;2023-02-28T01:21:07;8.40;43.50
44537;DHT22;30245;51.966;6.292;2023-02-28T01:23:33;8.40;43.80
44537;DHT22;30245;51.966;6.292;2023-02-28T01:26:10;8.30;43.90
44537;DHT22;30245;51.966;6.292;2023-02-28T01:28:36;8.40;43.90
44537;DHT22;30245;51.966;6.292;2023-02-28T01:31:02;8.30;43.90
44537;DHT22;30245;51.966;6.292;2023-02-28T01:33:28;8.30;43.90
44537;DHT22;30245;51.966;6.292;2023-02-28T01:36:11;8.30;44.00
44537;DHT22;30245;51.966;6.292;2023-02-28T01:38:37;8.30;44.10
44537;DHT22;30245;51.966;6.292;2023-02-28T01:41:04;8.30;44.10
44537;DHT22;30245;51.966;6.292;2023-02-28T01:46:11;8.30;44.20
44537;DHT22;30245;51.966;6.292;2023-02-28T01:48:41;8.30;44.20
44537;DHT22;30245;51.966;6.292;2023-02-28T01:51:17;8.30;44.20
44537;DHT22;30245;51.966;6.292;2023-02-28T01:53:49;8.30;44.20
44537;DHT22;30245;51.966;6.292;2023-02-28T01:56:19;8.30;44.20
44537;DHT22;30245;51.966;6.292;2023-02-28T01:58:50;8.30;44.20
44537;DHT22;30245;51.966;6.292;2023-02-28T02:01:18;8.30;44.30
44537;DHT22;30245;51.966;6.292;2023-02-28T02:03:52;8.30;44.40
44537;DHT22;30245;51.966;6.292;2023-02-28T02:06:25;8.30;44.40
44537;DHT22;30245;51.966;6.292;2023-02-28T02:08:52;8.20;44.40
44537;DHT22;30245;51.966;6.292;2023-02-28T02:11:20;8.20;44.40
44537;DHT22;30245;51.966;6.292;2023-02-28T02:14:07;8.30;44.50
44537;DHT22;30245;51.966;6.292;2023-02-28T02:19:28;8.30;44.30
44537;DHT22;30245;51.966;6.292;2023-02-28T02:22:32;8.30;44.30
44537;DHT22;30245;51.966;6.292;2023-02-28T02:28:14;8.30;44.20
44537;DHT22;30245;51.966;6.292;2023-02-28T02:30:46;8.40;44.30
44537;DHT22;30245;51.966;6.292;2023-02-28T02:41:40;8.50;44.00
44537;DHT22;30245;51.966;6.292;2023-02-28T02:44:30;8.50;44.00
44537;DHT22;30245;51.966;6.292;2023-02-28T02:47:10;8.50;43.80
44537;DHT22;30245;51.966;6.292;2023-02-28T02:49:39;8.50;43.70
44537;DHT22;30245;51.966;6.292;2023-02-28T02:52:09;8.50;43.70
44537;DHT22;30245;51.966;6.292;2023-02-28T02:54:40;8.60;43.80
44537;DHT22;30245;51.966;6.292;2023-02-28T02:57:13;8.60;43.80
44537;DHT22;30245;51.966;6.292;2023-02-28T02:59:41;8.70;43.80
44537;DHT22;30245;51.966;6.292;2023-02-28T03:02:10;8.70;43.70
44537;DHT22;30245;51.966;6.292;2023-02-28T03:04:43;8.70;43.60
44537;DHT22;30245;51.966;6.292;2023-02-28T03:07:09;8.70;43.60
44537;DHT22;30245;51.966;6.292;2023-02-28T03:09:35;8.80;44.20
44537;DHT22;30245;51.966;6.292;2023-02-28T03:12:04;8.80;43.60
44537;DHT22;30245;51.966;6.292;2023-02-28T03:25:56;9.00;43.40
44537;DHT22;30245;51.966;6.292;2023-02-28T03:28:51;9.00;43.50
44537;DHT22;30245;51.966;6.292;2023-02-28T03:31:34;9.10;43.50
44537;DHT22;30245;51.966;6.292;2023-02-28T03:34:10;9.10;43.40
44537;DHT22;30245;51.966;6.292;2023-02-28T03:36:44;9.10;43.40
44537;DHT22;30245;51.966;6.292;2023-02-28T03:39:30;9.10;43.30
44537;DHT22;30245;51.966;6.292;2023-02-28T03:42:24;9.00;43.40
44537;DHT22;30245;51.966;6.292;2023-02-28T03:44:54;9.00;43.50
44537;DHT22;30245;51.966;6.292;2023-02-28T03:47:29;8.90;43.40
44537;DHT22;30245;51.966;6.292;2023-02-28T03:52:34;9.00;43.50
44537;DHT22;30245;51.966;6.292;2023-02-28T03:55:03;8.90;43.50
44537;DHT22;30245;51.966;6.292;2023-02-28T03:57:43;9.00;43.70
44537;DHT22;30245;51.966;6.292;2023-02-28T04:00:27;8.90;43.50
44537;DHT22;30245;51.966;6.292;2023-02-28T04:02:55;9.00;43.60
44537;DHT22;30245;51.966;6.292;2023-02-28T04:05:21;9.00;43.60
44537;DHT22;30245;51.966;6.292;2023-02-28T04:07:47;8.90;43.60
44537;DHT22;30245;51.966;6.292;2023-02-28T04:10:15;8.90;43.60
44537;DHT22;30245;51.966;6.292;2023-02-28T04:12:41;8.90;43.70
44537;DHT22;30245;51.966;6.292;2023-02-28T04:15:07;8.90;43.70
44537;DHT22;30245;51.966;6.292;2023-02-28T04:17:33;8.90;43.70
44537;DHT22;30245;51.966;6.292;2023-02-28T04:19:59;8.90;43.70
44537;DHT22;30245;51.966;6.292;2023-02-28T04:22:24;8.90;43.60
44537;DHT22;30245;51.966;6.292;2023-02-28T04:24:53;8.90;43.60
44537;DHT22;30245;51.966;6.292;2023-02-28T04:27:20;9.00;43.60
44537;DHT22;30245;51.966;6.292;2023-02-28T04:29:46;8.90;43.50
44537;DHT22;30245;51.966;6.292;2023-02-28T04:32:12;8.90;43.50
44537;DHT22;30245;51.966;6.292;2023-02-28T04:34:38;9.00;43.60
44537;DHT22;30245;51.966;6.292;2023-02-28T04:37:04;8.90;43.50
44537;DHT22;30245;51.966;6.292;2023-02-28T04:39:30;9.00;43.60
44537;DHT22;30245;51.966;6.292;2023-02-28T04:41:59;9.00;43.60
44537;DHT22;30245;51.966;6.292;2023-02-28T04:44:25;9.00;43.60
44537;DHT22;30245;51.966;6.292;2023-02-28T04:46:50;9.00;43.60
44537;DHT22;30245;51.966;6.292;2023-02-28T04:49:16;9.00;43.60
44537;DHT22;30245;51.966;6.292;2023-02-28T04:51:42;9.00;43.50
44537;DHT22;30245;51.966;6.292;2023-02-28T04:54:07;9.10;43.50
44537;DHT22;30245;51.966;6.292;2023-02-28T04:56:33;9.00;43.40
44537;DHT22;30245;51.966;6.292;2023-02-28T04:58:59;9.00;43.50
44537;DHT22;30245;51.966;6.292;2023-02-28T05:03:53;9.00;43.50
44537;DHT22;30245;51.966;6.292;2023-02-28T05:06:20;9.00;43.50
44537;DHT22;30245;51.966;6.292;2023-02-28T05:08:46;9.10;43.50
44537;DHT22;30245;51.966;6.292;2023-02-28T05:11:19;9.10;43.50
44537;DHT22;30245;51.966;6.292;2023-02-28T05:13:46;9.10;43.50
44537;DHT22;30245;51.966;6.292;2023-02-28T05:16:11;9.10;43.60
44537;DHT22;30245;51.966;6.292;2023-02-28T05:18:37;9.00;43.50
44537;DHT22;30245;51.966;6.292;2023-02-28T05:21:03;9.00;43.60
44537;DHT22;30245;51.966;6.292;2023-02-28T05:23:29;9.00;43.60
44537;DHT22;30245;51.966;6.292;2023-02-28T05:25:55;9.00;43.60
44537;DHT22;30245;51.966;6.292;2023-02-28T05:28:20;9.00;43.70
44537;DHT22;30245;51.966;6.292;2023-02-28T05:30:46;9.00;43.70
44537;DHT22;30245;51.966;6.292;2023-02-28T05:33:13;9.00;43.80
44537;DHT22;30245;51.966;6.292;2023-02-28T05:35:42;9.00;43.80
44537;DHT22;30245;51.966;6.292;2023-02-28T05:38:10;8.90;43.80
44537;DHT22;30245;51.966;6.292;2023-02-28T05:40:38;8.90;43.80
44537;DHT22;30245;51.966;6.292;2023-02-28T05:43:05;9.00;43.90
44537;DHT22;30245;51.966;6.292;2023-02-28T05:45:30;9.00;43.80
44537;DHT22;30245;51.966;6.292;2023-02-28T05:47:56;9.00;43.70
44537;DHT22;30245;51.966;6.292;2023-02-28T05:50:21;9.00;43.70
44537;DHT22;30245;51.966;6.292;2023-02-28T05:52:50;8.90;43.70
44537;DHT22;30245;51.966;6.292;2023-02-28T05:55:16;9.00;43.80
44537;DHT22;30245;51.966;6.292;2023-02-28T05:57:42;8.90;43.80
44537;DHT22;30245;51.966;6.292;2023-02-28T06:00:08;8.90;43.70
44537;DHT22;30245;51.966;6.292;2023-02-28T06:02:34;8.90;43.80
44537;DHT22;30245;51.966;6.292;2023-02-28T06:05:00;8.90;43.70
44537;DHT22;30245;51.966;6.292;2023-02-28T06:07:25;8.90;43.80
44537;DHT22;30245;51.966;6.292;2023-02-28T06:09:51;8.90;43.80
44537;DHT22;30245;51.966;6.292;2023-02-28T06:12:16;8.90;43.90
44537;DHT22;30245;51.966;6.292;2023-02-28T06:14:43;8.80;43.90
44537;DHT22;30245;51.966;6.292;2023-02-28T06:17:09;8.80;43.80
44537;DHT22;30245;51.966;6.292;2023-02-28T06:19:37;8.80;43.90
44537;DHT22;30245;51.966;6.292;2023-02-28T06:22:04;8.80;43.90
44537;DHT22;30245;51.966;6.292;2023-02-28T06:24:29;8.80;43.80
44537;DHT22;30245;51.966;6.292;2023-02-28T06:26:56;8.80;43.80
44537;DHT22;30245;51.966;6.292;2023-02-28T06:29:24;8.70;43.70
44537;DHT22;30245;51.966;6.292;2023-02-28T06:31:50;8.70;43.90
44537;DHT22;30245;51.966;6.292;2023-02-28T06:34:16;8.70;44.00
44537;DHT22;30245;51.966;6.292;2023-02-28T06:36:42;8.70;44.00
44537;DHT22;30245;51.966;6.292;2023-02-28T06:39:09;8.70;43.90
44537;DHT22;30245;51.966;6.292;2023-02-28T06:41:35;8.80;44.00
44537;DHT22;30245;51.966;6.292;2023-02-28T06:44:10;8.70;43.90
44537;DHT22;30245;51.966;6.292;2023-02-28T06:46:36;8.70;44.00
44537;DHT22;30245;51.966;6.292;2023-02-28T06:49:03;8.70;44.00
44537;DHT22;30245;51.966;6.292;2023-02-28T06:51:29;8.70;43.90
44537;DHT22;30245;51.966;6.292;2023-02-28T06:53:54;8.70;43.80
44537;DHT22;30245;51.966;6.292;2023-02-28T06:56:20;8.70;43.90
44537;DHT22;30245;51.966;6.292;2023-02-28T06:58:47;8.70;44.00
44537;DHT22;30245;51.966;6.292;2023-02-28T07:01:14;8.70;44.00
44537;DHT22;30245;51.966;6.292;2023-02-28T07:03:40;8.70;44.00
44537;DHT22;30245;51.966;6.292;2023-02-28T07:06:06;8.70;44.00
44537;DHT22;30245;51.966;6.292;2023-02-28T07:08:32;8.70;44.00
44537;DHT22;30245;51.966;6.292;2023-02-28T07:10:58;8.70;43.90
44537;DHT22;30245;51.966;6.292;2023-02-28T07:13:24;8.70;43.80
44537;DHT22;30245;51.966;6.292;2023-02-28T07:15:58;8.80;43.80
44537;DHT22;30245;51.966;6.292;2023-02-28T07:18:24;8.90;43.70
44537;DHT22;30245;51.966;6.292;2023-02-28T07:20:49;8.90;43.50
44537;DHT22;30245;51.966;6.292;2023-02-28T07:23:15;9.00;43.50
44537;DHT22;30245;51.966;6.292;2023-02-28T07:25:41;9.10;43.40
44537;DHT22;30245;51.966;6.292;2023-02-28T07:28:06;9.10;43.20
44537;DHT22;30245;51.966;6.292;2023-02-28T07:30:32;9.10;43.00
44537;DHT22;30245;51.966;6.292;2023-02-28T07:32:57;9.10;43.00
44537;DHT22;30245;51.966;6.292;2023-02-28T07:35:23;9.10;42.80
44537;DHT22;30245;51.966;6.292;2023-02-28T07:37:49;9.10;42.90
44537;DHT22;30245;51.966;6.292;2023-02-28T07:40:14;9.10;42.80
44537;DHT22;30245;51.966;6.292;2023-02-28T07:42:41;9.10;42.70
44537;DHT22;30245;51.966;6.292;2023-02-28T07:45:08;9.10;42.60
44537;DHT22;30245;51.966;6.292;2023-02-28T07:47:39;9.10;42.60
44537;DHT22;30245;51.966;6.292;2023-02-28T07:50:06;9.10;42.60
44537;DHT22;30245;51.966;6.292;2023-02-28T07:52:32;9.10;42.60
44537;DHT22;30245;51.966;6.292;2023-02-28T07:54:58;9.10;42.70
44537;DHT22;30245;51.966;6.292;2023-02-28T07:57:23;9.10;42.60
44537;DHT22;30245;51.966;6.292;2023-02-28T07:59:49;9.20;42.60
44537;DHT22;30245;51.966;6.292;2023-02-28T08:02:16;9.30;42.60
44537;DHT22;30245;51.966;6.292;2023-02-28T08:04:43;9.30;42.30
44537;DHT22;30245;51.966;6.292;2023-02-28T08:07:08;9.40;42.20
44537;DHT22;30245;51.966;6.292;2023-02-28T08:09:39;9.40;42.10
44537;DHT22;30245;51.966;6.292;2023-02-28T08:12:05;9.60;41.90
44537;DHT22;30245;51.966;6.292;2023-02-28T08:14:31;9.60;41.60
44537;DHT22;30245;51.966;6.292;2023-02-28T08:16:56;9.60;41.50
44537;DHT22;30245;51.966;6.292;2023-02-28T08:19:22;9.70;41.50
44537;DHT22;30245;51.966;6.292;2023-02-28T08:21:47;9.80;41.30
44537;DHT22;30245;51.966;6.292;2023-02-28T08:24:13;10.00;41.30
44537;DHT22;30245;51.966;6.292;2023-02-28T08:26:39;10.40;40.80
44537;DHT22;30245;51.966;6.292;2023-02-28T08:29:04;10.90;40.30
44537;DHT22;30245;51.966;6.292;2023-02-28T08:31:30;11.40;39.70
44537;DHT22;30245;51.966;6.292;2023-02-28T08:33:55;12.00;39.10
44537;DHT22;30245;51.966;6.292;2023-02-28T08:36:24;12.60;38.00
44537;DHT22;30245;51.966;6.292;2023-02-28T08:38:50;12.90;37.40
44537;DHT22;30245;51.966;6.292;2023-02-28T08:41:16;13.00;36.80
44537;DHT22;30245;51.966;6.292;2023-02-28T08:43:41;13.10;36.20
44537;DHT22;30245;51.966;6.292;2023-02-28T08:46:07;13.00;35.60
44537;DHT22;30245;51.966;6.292;2023-02-28T08:48:36;13.10;35.30
44537;DHT22;30245;51.966;6.292;2023-02-28T08:51:08;13.30;35.00
44537;DHT22;30245;51.966;6.292;2023-02-28T08:53:35;13.60;33.90
44537;DHT22;30245;51.966;6.292;2023-02-28T08:56:06;13.50;33.20
44537;DHT22;30245;51.966;6.292;2023-02-28T08:58:33;13.40;33.30
44537;DHT22;30245;51.966;6.292;2023-02-28T09:00:59;13.30;33.30
44537;DHT22;30245;51.966;6.292;2023-02-28T09:03:25;13.30;33.70
44537;DHT22;30245;51.966;6.292;2023-02-28T09:05:56;13.40;33.00
44537;DHT22;30245;51.966;6.292;2023-02-28T09:08:23;13.50;33.00
44537;DHT22;30245;51.966;6.292;2023-02-28T09:10:49;13.80;32.40
44537;DHT22;30245;51.966;6.292;2023-02-28T09:13:14;14.20;31.60
44537;DHT22;30245;51.966;6.292;2023-02-28T09:15:40;14.70;31.20
44537;DHT22;30245;51.966;6.292;2023-02-28T09:18:06;15.00;30.60
44537;DHT22;30245;51.966;6.292;2023-02-28T09:20:31;15.20;29.80
44537;DHT22;30245;51.966;6.292;2023-02-28T09:22:57;15.30;29.90
44537;DHT22;30245;51.966;6.292;2023-02-28T09:25:22;15.40;29.60
44537;DHT22;30245;51.966;6.292;2023-02-28T09:27:48;15.60;29.20
44537;DHT22;30245;51.966;6.292;2023-02-28T09:30:14;15.50;28.90
44537;DHT22;30245;51.966;6.292;2023-02-28T09:32:40;15.80;29.00
44537;DHT22;30245;51.966;6.292;2023-02-28T09:35:06;16.30;29.00
44537;DHT22;30245;51.966;6.292;2023-02-28T09:37:32;16.70;28.50
44537;DHT22;30245;51.966;6.292;2023-02-28T09:39:57;17.10;28.30
44537;DHT22;30245;51.966;6.292;2023-02-28T09:42:32;17.20;27.10
44537;DHT22;30245;51.966;6.292;2023-02-28T09:45:00;17.20;26.90
44537;DHT22;30245;51.966;6.292;2023-02-28T09:50:04;17.50;26.70
44537;DHT22;30245;51.966;6.292;2023-02-28T09:52:33;17.70;26.80
44537;DHT22;30245;51.966;6.292;2023-02-28T09:57:54;18.00;26.20
44537;DHT22;30245;51.966;6.292;2023-02-28T10:00:36;18.30;26.10
44537;DHT22;30245;51.966;6.292;2023-02-28T10:03:24;18.40;25.60
44537;DHT22;30245;51.966;6.292;2023-02-28T10:05:54;18.30;25.60
44537;DHT22;30245;51.966;6.292;2023-02-28T10:08:29;18.30;25.50
44537;DHT22;30245;51.966;6.292;2023-02-28T10:11:01;18.30;25.50
44537;DHT22;30245;51.966;6.292;2023-02-28T10:19:09;18.00;24.60
44537;DHT22;30245;51.966;6.292;2023-02-28T10:21:56;17.80;24.60
44537;DHT22;30245;51.966;6.292;2023-02-28T10:24:47;17.80;24.90
44537;DHT22;30245;51.966;6.292;2023-02-28T10:27:19;17.80;24.70
44537;DHT22;30245;51.966;6.292;2023-02-28T10:29:47;17.70;24.70
44537;DHT22;30245;51.966;6.292;2023-02-28T10:32:17;17.70;24.60
44537;DHT22;30245;51.966;6.292;2023-02-28T10:34:43;17.60;24.60
44537;DHT22;30245;51.966;6.292;2023-02-28T10:37:10;17.60;24.60
44537;DHT22;30245;51.966;6.292;2023-02-28T10:39:39;17.70;24.70
44537;DHT22;30245;51.966;6.292;2023-02-28T10:42:25;17.70;24.20
44537;DHT22;30245;51.966;6.292;2023-02-28T10:45:12;17.60;24.50
44537;DHT22;30245;51.966;6.292;2023-02-28T11:01:17;17.50;24.30
44537;DHT22;30245;51.966;6.292;2023-02-28T11:03:43;17.50;24.10
44537;DHT22;30245;51.966;6.292;2023-02-28T11:11:45;17.40;24.20
44537;DHT22;30245;51.966;6.292;2023-02-28T11:14:24;17.50;24.10
44537;DHT22;30245;51.966;6.292;2023-02-28T11:16:50;17.50;24.10
44537;DHT22;30245;51.966;6.292;2023-02-28T11:19:39;17.60;24.20
44537;DHT22;30245;51.966;6.292;2023-02-28T11:22:06;17.80;24.40
44537;DHT22;30245;51.966;6.292;2023-02-28T11:24:43;18.20;24.50
44537;DHT22;30245;51.966;6.292;2023-02-28T11:29:58;18.20;23.80
44537;DHT22;30245;51.966;6.292;2023-02-28T11:32:25;18.00;23.60
44537;DHT22;30245;51.966;6.292;2023-02-28T11:37:37;17.80;23.80
44537;DHT22;30245;51.966;6.292;2023-02-28T11:40:15;17.90;24.10
44537;DHT22;30245;51.966;6.292;2023-02-28T11:43:05;18.10;24.20
44537;DHT22;30245;51.966;6.292;2023-02-28T11:45:45;18.30;24.00
44537;DHT22;30245;51.966;6.292;2023-02-28T11:48:27;18.10;23.70
44537;DHT22;30245;51.966;6.292;2023-02-28T11:51:27;18.10;23.60
44537;DHT22;30245;51.966;6.292;2023-02-28T11:54:32;17.80;23.80
44537;DHT22;30245;51.966;6.292;2023-02-28T12:00:07;17.50;24.40
44537;DHT22;30245;51.966;6.292;2023-02-28T12:05:54;17.50;23.90
44537;DHT22;30245;51.966;6.292;2023-02-28T12:09:08;17.40;24.00
44537;DHT22;30245;51.966;6.292;2023-02-28T12:11:34;17.50;24.20
44537;DHT22;30245;51.966;6.292;2023-02-28T12:17:06;18.20;24.30
44537;DHT22;30245;51.966;6.292;2023-02-28T12:19:46;18.10;23.90
44537;DHT22;30245;51.966;6.292;2023-02-28T12:22:32;17.90;23.80
44537;DHT22;30245;51.966;6.292;2023-02-28T12:27:48;17.40;23.80
44537;DHT22;30245;51.966;6.292;2023-02-28T12:30:30;17.30;23.90
44537;DHT22;30245;51.966;6.292;2023-02-28T12:33:02;17.20;23.90
44537;DHT22;30245;51.966;6.292;2023-02-28T12:35:44;17.10;24.00
44537;DHT22;30245;51.966;6.292;2023-02-28T12:38:19;16.90;24.10
44537;DHT22;30245;51.966;6.292;2023-02-28T12:41:01;16.90;24.20
44537;DHT22;30245;51.966;6.292;2023-02-28T12:43:38;17.10;24.50
44537;DHT22;30245;51.966;6.292;2023-02-28T12:46:23;17.20;24.20
44537;DHT22;30245;51.966;6.292;2023-02-28T12:49:05;17.30;24.10
44537;DHT22;30245;51.966;6.292;2023-02-28T12:51:32;17.20;24.20
44537;DHT22;30245;51.966;6.292;2023-02-28T12:54:28;17.10;24.10
44537;DHT22;30245;51.966;6.292;2023-02-28T12:57:07;17.00;24.10
44537;DHT22;30245;51.966;6.292;2023-02-28T12:59:51;16.80;24.20
44537;DHT22;30245;51.966;6.292;2023-02-28T13:10:48;16.80;24.80
44537;DHT22;30245;51.966;6.292;2023-02-28T13:13:28;16.90;24.40
44537;DHT22;30245;51.966;6.292;2023-02-28T13:16:04;17.10;24.50
44537;DHT22;30245;51.966;6.292;2023-02-28T13:18:47;17.40;24.60
44537;DHT22;30245;51.966;6.292;2023-02-28T13:21:35;17.50;24.30
44537;DHT22;30245;51.966;6.292;2023-02-28T13:24:08;17.50;24.30
44537;DHT22;30245;51.966;6.292;2023-02-28T13:35:42;16.90;24.20
44537;DHT22;30245;51.966;6.292;2023-02-28T13:37:35;16.70;24.40
44537;DHT22;30245;51.966;6.292;2023-02-28T13:42:47;17.00;24.70
44537;DHT22;30245;51.966;6.292;2023-02-28T13:45:30;17.20;24.60
44537;DHT22;30245;51.966;6.292;2023-02-28T13:48:02;17.30;24.70
44537;DHT22;30245;51.966;6.292;2023-02-28T13:59:13;17.50;24.40
44537;DHT22;30245;51.966;6.292;2023-02-28T14:02:30;17.50;24.40
44537;DHT22;30245;51.966;6.292;2023-02-28T14:07:21;17.60;24.30
44537;DHT22;30245;51.966;6.292;2023-02-28T14:09:57;17.40;24.20
44537;DHT22;30245;51.966;6.292;2023-02-28T14:12:56;17.20;24.20
44537;DHT22;30245;51.966;6.292;2023-02-28T14:18:04;17.10;24.50
44537;DHT22;30245;51.966;6.292;2023-02-28T14:20:32;17.20;24.50
44537;DHT22;30245;51.966;6.292;2023-02-28T14:23:30;17.50;24.60
44537;DHT22;30245;51.966;6.292;2023-02-28T14:31:29;17.70;24.30
44537;DHT22;30245;51.966;6.292;2023-02-28T14:34:29;17.90;24.90
44537;DHT22;30245;51.966;6.292;2023-02-28T14:36:58;18.10;24.40
44537;DHT22;30245;51.966;6.292;2023-02-28T14:39:26;18.20;24.20
44537;DHT22;30245;51.966;6.292;2023-02-28T14:41:53;18.20;24.10
44537;DHT22;30245;51.966;6.292;2023-02-28T14:44:24;18.20;24.10
44537;DHT22;30245;51.966;6.292;2023-02-28T14:46:55;18.20;24.10
44537;DHT22;30245;51.966;6.292;2023-02-28T14:49:30;18.20;24.20
44537;DHT22;30245;51.966;6.292;2023-02-28T14:54:31;19.00;24.00
44537;DHT22;30245;51.966;6.292;2023-02-28T14:56:57;19.40;23.90
44537;DHT22;30245;51.966;6.292;2023-02-28T14:59:31;19.80;23.60
44537;DHT22;30245;51.966;6.292;2023-02-28T15:02:23;19.90;23.20
44537;DHT22;30245;51.966;6.292;2023-02-28T15:04:57;19.90;23.00
44537;DHT22;30245;51.966;6.292;2023-02-28T15:07:23;19.90;23.10
44537;DHT22;30245;51.966;6.292;2023-02-28T15:12:40;20.00;23.10
44537;DHT22;30245;51.966;6.292;2023-02-28T15:15:17;20.30;23.10
44537;DHT22;30245;51.966;6.292;2023-02-28T15:17:56;20.40;22.80
44537;DHT22;30245;51.966;6.292;2023-02-28T15:20:22;20.40;22.70
44537;DHT22;30245;51.966;6.292;2023-02-28T15:22:50;20.50;22.80
44537;DHT22;30245;51.966;6.292;2023-02-28T15:25:19;20.50;22.60
44537;DHT22;30245;51.966;6.292;2023-02-28T15:27:54;20.50;22.70
44537;DHT22;30245;51.966;6.292;2023-02-28T15:30:25;20.70;22.90
44537;DHT22;30245;51.966;6.292;2023-02-28T15:33:18;20.90;22.70
44537;DHT22;30245;51.966;6.292;2023-02-28T15:35:44;21.10;22.70
44537;DHT22;30245;51.966;6.292;2023-02-28T15:38:17;21.10;22.60
44537;DHT22;30245;51.966;6.292;2023-02-28T15:40:49;20.80;22.30
44537;DHT22;30245;51.966;6.292;2023-02-28T15:43:32;20.70;22.60
44537;DHT22;30245;51.966;6.292;2023-02-28T15:46:04;20.60;22.70
44537;DHT22;30245;51.966;6.292;2023-02-28T15:48:34;20.50;22.60
44537;DHT22;30245;51.966;6.292;2023-02-28T15:53:35;19.80;22.80
44537;DHT22;30245;51.966;6.292;2023-02-28T15:56:21;19.40;23.00
44537;DHT22;30245;51.966;6.292;2023-02-28T15:58:47;19.10;23.10
44537;DHT22;30245;51.966;6.292;2023-02-28T16:01:38;18.80;23.20
44537;DHT22;30245;51.966;6.292;2023-02-28T16:04:18;18.50;23.40
44537;DHT22;30245;51.966;6.292;2023-02-28T16:09:13;17.90;23.70
44537;DHT22;30245;51.966;6.292;2023-02-28T16:11:42;17.60;23.90
44537;DHT22;30245;51.966;6.292;2023-02-28T16:14:13;17.50;24.00
44537;DHT22;30245;51.966;6.292;2023-02-28T16:16:46;17.40;24.10
44537;DHT22;30245;51.966;6.292;2023-02-28T16:19:13;17.40;24.20
44537;DHT22;30245;51.966;6.292;2023-02-28T16:21:38;17.40;24.40
44537;DHT22;30245;51.966;6.292;2023-02-28T16:24:04;17.30;24.60
44537;DHT22;30245;51.966;6.292;2023-02-28T16:26:30;17.00;24.60
44537;DHT22;30245;51.966;6.292;2023-02-28T16:28:56;16.60;24.60
44537;DHT22;30245;51.966;6.292;2023-02-28T16:31:21;16.20;24.90
44537;DHT22;30245;51.966;6.292;2023-02-28T16:33:47;15.90;25.10
44537;DHT22;30245;51.966;6.292;2023-02-28T16:36:23;15.60;25.30
44537;DHT22;30245;51.966;6.292;2023-02-28T16:38:54;15.40;25.50
44537;DHT22;30245;51.966;6.292;2023-02-28T16:41:26;15.20;25.60
44537;DHT22;30245;51.966;6.292;2023-02-28T16:43:54;14.90;25.80
44537;DHT22;30245;51.966;6.292;2023-02-28T16:46:25;14.80;26.00
44537;DHT22;30245;51.966;6.292;2023-02-28T16:48:52;14.60;26.10
44537;DHT22;30245;51.966;6.292;2023-02-28T16:51:18;14.50;26.10
44537;DHT22;30245;51.966;6.292;2023-02-28T16:53:44;14.40;26.20
44537;DHT22;30245;51.966;6.292;2023-02-28T16:56:16;14.30;26.40
44537;DHT22;30245;51.966;6.292;2023-02-28T16:58:42;14.20;26.50
44537;DHT22;30245;51.966;6.292;2023-02-28T17:01:08;14.10;26.60
44537;DHT22;30245;51.966;6.292;2023-02-28T17:03:33;14.00;26.70
44537;DHT22;30245;51.966;6.292;2023-02-28T17:06:01;13.90;26.80
44537;DHT22;30245;51.966;6.292;2023-02-28T17:08:27;13.80;26.90
44537;DHT22;30245;51.966;6.292;2023-02-28T17:10:54;13.70;27.00
44537;DHT22;30245;51.966;6.292;2023-02-28T17:13:20;13.60;27.10
44537;DHT22;30245;51.966;6.292;2023-02-28T17:15:46;13.60;27.20
44537;DHT22;30245;51.966;6.292;2023-02-28T17:18:15;13.50;27.30
44537;DHT22;30245;51.966;6.292;2023-02-28T17:20:41;13.40;27.40
44537;DHT22;30245;51.966;6.292;2023-02-28T17:23:08;13.30;27.30
44537;DHT22;30245;51.966;6.292;2023-02-28T17:25:33;13.20;27.40
44537;DHT22;30245;51.966;6.292;2023-02-28T17:27:59;13.10;27.50
44537;DHT22;30245;51.966;6.292;2023-02-28T17:30:26;13.00;27.70
44537;DHT22;30245;51.966;6.292;2023-02-28T17:32:56;12.90;27.80
44537;DHT22;30245;51.966;6.292;2023-02-28T17:35:22;12.90;27.90
44537;DHT22;30245;51.966;6.292;2023-02-28T17:37:48;12.80;27.90
44537;DHT22;30245;51.966;6.292;2023-02-28T17:40:20;12.70;28.00
44537;DHT22;30245;51.966;6.292;2023-02-28T17:42:46;12.60;28.10
44537;DHT22;30245;51.966;6.292;2023-02-28T17:45:12;12.60;28.20
44537;DHT22;30245;51.966;6.292;2023-02-28T17:47:39;12.60;28.30
44537;DHT22;30245;51.966;6.292;2023-02-28T17:50:05;12.50;28.40
44537;DHT22;30245;51.966;6.292;2023-02-28T17:52:30;12.50;28.40
44537;DHT22;30245;51.966;6.292;2023-02-28T17:54:56;12.40;28.50
44537;DHT22;30245;51.966;6.292;2023-02-28T17:57:22;12.30;28.50
44537;DHT22;30245;51.966;6.292;2023-02-28T17:59:47;12.20;28.60
44537;DHT22;30245;51.966;6.292;2023-02-28T18:02:13;12.20;28.70
44537;DHT22;30245;51.966;6.292;2023-02-28T18:04:39;12.20;28.80
44537;DHT22;30245;51.966;6.292;2023-02-28T18:07:11;12.20;28.90